Terminal Aerodrome Forecast
Issued by NWS Norman, OK

Home | Current Version | Previous Version | Text Only | Print | Product List | Glossary On
Versions: 1 2 3 4 5 6 7 8 9 10 11 12
000
FTUS44 KOUN 241218 RRA
TAFOKC
TAF
KOKC 241218Z 2412/2512 33018G28KT P6SM FEW020
     FM241600 34014G24KT P6SM FEW040
     FM250000 36012KT P6SM SCT150=

USA.gov is the U.S. government's official web portal to all federal, state and local government web resources and services.